createdAt,value
2022-08-08T00:06:56.030Z,3.00
2022-08-08T00:17:22.660Z,2.90
2022-08-08T00:27:34.860Z,3.30
2022-08-08T00:38:32.423Z,3.00
2022-08-08T00:49:21.922Z,2.90
2022-08-08T00:59:50.777Z,3.00
2022-08-08T01:10:05.908Z,2.70
2022-08-08T01:20:15.525Z,2.90
2022-08-08T01:30:24.718Z,2.60
2022-08-08T01:40:42.506Z,2.70
2022-08-08T01:51:00.005Z,3.10
2022-08-08T02:01:27.852Z,2.80
2022-08-08T02:12:00.174Z,2.60
2022-08-08T02:22:31.879Z,2.70
2022-08-08T02:32:57.173Z,2.50
2022-08-08T02:44:35.792Z,2.50
2022-08-08T02:54:08.596Z,2.70
2022-08-08T03:05:05.295Z,3.10
2022-08-08T03:15:58.629Z,2.50
2022-08-08T03:26:05.314Z,2.70
2022-08-08T03:36:19.525Z,2.90
2022-08-08T03:46:26.535Z,2.60
2022-08-08T03:56:39.086Z,3.10
2022-08-08T04:06:56.929Z,2.90
2022-08-08T04:17:22.799Z,2.50
2022-08-08T04:28:01.322Z,2.90
2022-08-08T04:38:01.365Z,2.60
2022-08-08T04:48:07.721Z,2.80
2022-08-08T04:58:17.713Z,2.70
2022-08-08T05:08:26.941Z,2.70
2022-08-08T05:18:35.173Z,2.70
2022-08-08T05:28:56.604Z,2.60
2022-08-08T05:39:07.221Z,2.70
2022-08-08T05:49:17.650Z,3.10
2022-08-08T06:00:00.866Z,2.60
2022-08-08T06:10:00.169Z,2.70
2022-08-08T06:20:11.663Z,2.60
2022-08-08T06:30:20.282Z,2.90
2022-08-08T06:40:36.821Z,2.80
2022-08-08T06:50:44.020Z,2.70
2022-08-08T07:00:51.950Z,2.90
2022-08-08T07:11:00.837Z,2.60
2022-08-08T07:21:09.956Z,2.90
2022-08-08T07:31:26.487Z,2.50
2022-08-08T07:41:58.898Z,2.70
2022-08-08T07:52:00.666Z,2.60
2022-08-08T08:02:34.328Z,2.50
2022-08-08T08:12:42.211Z,2.40
2022-08-08T08:22:49.928Z,2.30
2022-08-08T08:32:56.271Z,2.20
2022-08-08T08:43:09.028Z,2.60
2022-08-08T08:53:55.045Z,3.00
2022-08-08T09:03:51.487Z,2.80
2022-08-08T09:13:58.123Z,2.50
2022-08-08T09:24:04.740Z,2.40
2022-08-08T09:34:31.565Z,2.50
2022-08-08T09:45:04.125Z,2.70
2022-08-08T09:55:17.448Z,2.20
2022-08-08T10:05:41.291Z,2.40
2022-08-08T10:16:00.451Z,2.40
2022-08-08T10:26:25.728Z,3.90
2022-08-08T10:36:34.754Z,2.50
2022-08-08T10:46:40.976Z,2.40
2022-08-08T10:56:47.339Z,2.40
2022-08-08T11:07:02.131Z,2.90
2022-08-08T11:17:14.848Z,2.30
2022-08-08T11:27:29.210Z,2.60
2022-08-08T11:38:35.120Z,2.70
2022-08-08T11:48:10.902Z,2.70
2022-08-08T11:58:37.623Z,3.20
2022-08-08T12:08:44.371Z,2.60
2022-08-08T12:18:52.265Z,2.70
2022-08-08T12:28:59.998Z,2.60
2022-08-08T12:39:06.695Z,2.10
2022-08-08T12:49:43.275Z,2.80
2022-08-08T13:00:04.535Z,2.30
2022-08-08T13:10:17.195Z,2.50
2022-08-08T13:20:27.326Z,2.50
2022-08-08T13:30:34.153Z,2.70
2022-08-08T13:40:41.448Z,2.80
2022-08-08T13:50:56.931Z,3.40
2022-08-08T14:01:18.086Z,3.00
2022-08-08T14:11:27.941Z,2.70
2022-08-08T14:21:52.118Z,2.80
2022-08-08T14:32:09.344Z,2.60
2022-08-08T14:42:31.212Z,2.80
2022-08-08T14:52:46.452Z,2.50
2022-08-08T15:02:58.539Z,3.00
2022-08-08T15:13:07.963Z,2.70
2022-08-08T15:23:14.885Z,2.70
2022-08-08T15:33:38.135Z,2.50
2022-08-08T15:44:00.865Z,3.10
2022-08-08T15:54:37.201Z,5.40
2022-08-08T16:04:33.618Z,2.95
2022-08-08T16:14:41.246Z,3.20
2022-08-08T16:25:05.783Z,3.10
2022-08-08T16:35:13.693Z,3.30
2022-08-08T16:46:36.936Z,2.90
2022-08-08T16:55:58.113Z,2.80
2022-08-08T17:06:35.296Z,3.20
2022-08-08T17:16:33.446Z,3.20
2022-08-08T17:26:40.024Z,3.10
2022-08-08T17:37:00.060Z,3.20
2022-08-08T17:47:09.728Z,3.10
2022-08-08T17:57:16.227Z,3.10
2022-08-08T18:08:02.845Z,2.90
2022-08-08T18:18:09.216Z,2.90
2022-08-08T18:28:15.163Z,3.50
2022-08-08T18:38:29.866Z,3.10
2022-08-08T18:48:36.284Z,3.40
2022-08-08T18:58:42.577Z,3.70
2022-08-08T19:08:49.111Z,4.20
2022-08-08T19:19:01.956Z,4.40
2022-08-08T19:29:10.090Z,4.10
2022-08-08T19:39:16.445Z,3.80
2022-08-08T19:49:25.833Z,3.50
2022-08-08T19:59:34.951Z,4.00
2022-08-08T20:09:45.225Z,4.00
2022-08-08T20:20:02.763Z,4.30
2022-08-08T20:30:53.900Z,3.90
2022-08-08T20:40:39.685Z,3.70
2022-08-08T20:50:46.510Z,3.80
2022-08-08T21:00:52.865Z,3.60
2022-08-08T21:11:00.477Z,3.70
2022-08-08T21:21:41.005Z,4.00
2022-08-08T21:31:57.531Z,3.70
2022-08-08T21:42:05.246Z,4.00
2022-08-08T21:54:27.269Z,3.60
2022-08-08T22:02:41.118Z,3.80
2022-08-08T22:12:47.569Z,4.20
2022-08-08T22:22:56.152Z,4.10
2022-08-08T22:33:03.251Z,3.80
2022-08-08T22:43:28.470Z,4.00
2022-08-08T22:54:33.027Z,4.30
2022-08-08T23:04:04.969Z,4.40
2022-08-08T23:14:11.850Z,4.50
2022-08-08T23:24:22.373Z,4.40
2022-08-08T23:34:29.478Z,4.40
2022-08-08T23:44:38.593Z,4.40
2022-08-08T23:55:00.098Z,4.60
